sensor_id;sensor_type;location;lat;lon;timestamp;P1;durP1;ratioP1;P2;durP2;ratioP2
74644;SDS011;63163;55.630;37.594;2023-06-10T00:00:22;4.8;;;1.7;;
74644;SDS011;63163;55.630;37.594;2023-06-10T00:01:23;4.6;;;1.9;;
74644;SDS011;63163;55.630;37.594;2023-06-10T00:02:25;3.9;;;1.7;;
74644;SDS011;63163;55.630;37.594;2023-06-10T00:03:26;6.0;;;2.0;;
74644;SDS011;63163;55.630;37.594;2023-06-10T00:04:26;4.5;;;1.8;;
74644;SDS011;63163;55.630;37.594;2023-06-10T00:05:27;5.4;;;1.9;;
74644;SDS011;63163;55.630;37.594;2023-06-10T00:06:30;5.4;;;2.1;;
74644;SDS011;63163;55.630;37.594;2023-06-10T00:07:36;3.4;;;1.7;;
74644;SDS011;63163;55.630;37.594;2023-06-10T00:08:38;4.1;;;1.7;;
74644;SDS011;63163;55.630;37.594;2023-06-10T00:09:40;3.2;;;2.0;;
74644;SDS011;63163;55.630;37.594;2023-06-10T00:10:40;3.4;;;2.0;;
74644;SDS011;63163;55.630;37.594;2023-06-10T00:11:41;2.9;;;1.8;;
74644;SDS011;63163;55.630;37.594;2023-06-10T00:12:41;6.0;;;1.9;;
74644;SDS011;63163;55.630;37.594;2023-06-10T00:13:42;2.7;;;1.6;;
74644;SDS011;63163;55.630;37.594;2023-06-10T00:14:43;3.2;;;1.7;;
74644;SDS011;63163;55.630;37.594;2023-06-10T00:15:43;3.7;;;1.8;;
74644;SDS011;63163;55.630;37.594;2023-06-10T00:16:44;5.4;;;2.1;;
74644;SDS011;63163;55.630;37.594;2023-06-10T00:17:45;5.5;;;1.9;;
74644;SDS011;63163;55.630;37.594;2023-06-10T00:18:46;5.8;;;1.8;;
74644;SDS011;63163;55.630;37.594;2023-06-10T00:19:47;3.3;;;1.6;;
74644;SDS011;63163;55.630;37.594;2023-06-10T00:20:47;3.1;;;1.7;;
74644;SDS011;63163;55.630;37.594;2023-06-10T00:21:49;3.5;;;1.8;;
74644;SDS011;63163;55.630;37.594;2023-06-10T00:22:51;3.5;;;1.8;;
74644;SDS011;63163;55.630;37.594;2023-06-10T00:23:52;3.0;;;1.8;;
74644;SDS011;63163;55.630;37.594;2023-06-10T00:24:52;3.8;;;1.8;;
74644;SDS011;63163;55.630;37.594;2023-06-10T00:25:53;5.2;;;2.2;;
74644;SDS011;63163;55.630;37.594;2023-06-10T00:26:53;4.9;;;1.9;;
74644;SDS011;63163;55.630;37.594;2023-06-10T00:27:54;3.7;;;1.7;;
74644;SDS011;63163;55.630;37.594;2023-06-10T00:28:55;4.2;;;1.7;;
74644;SDS011;63163;55.630;37.594;2023-06-10T00:29:55;5.4;;;1.7;;
74644;SDS011;63163;55.630;37.594;2023-06-10T00:30:56;5.0;;;1.9;;
74644;SDS011;63163;55.630;37.594;2023-06-10T00:31:57;3.5;;;2.0;;
74644;SDS011;63163;55.630;37.594;2023-06-10T00:32:58;3.3;;;2.0;;
74644;SDS011;63163;55.630;37.594;2023-06-10T00:33:59;4.0;;;1.8;;
74644;SDS011;63163;55.630;37.594;2023-06-10T00:34:59;3.5;;;1.6;;
74644;SDS011;63163;55.630;37.594;2023-06-10T00:36:00;4.1;;;1.6;;
74644;SDS011;63163;55.630;37.594;2023-06-10T00:37:00;5.1;;;2.1;;
74644;SDS011;63163;55.630;37.594;2023-06-10T00:38:01;5.5;;;1.8;;
74644;SDS011;63163;55.630;37.594;2023-06-10T00:39:02;7.0;;;1.9;;
74644;SDS011;63163;55.630;37.594;2023-06-10T00:40:04;3.4;;;1.7;;
74644;SDS011;63163;55.630;37.594;2023-06-10T00:41:05;3.4;;;1.6;;
74644;SDS011;63163;55.630;37.594;2023-06-10T00:42:06;2.9;;;1.8;;
74644;SDS011;63163;55.630;37.594;2023-06-10T00:43:07;3.8;;;1.9;;
74644;SDS011;63163;55.630;37.594;2023-06-10T00:44:08;2.8;;;1.6;;
74644;SDS011;63163;55.630;37.594;2023-06-10T00:45:09;3.4;;;1.8;;
74644;SDS011;63163;55.630;37.594;2023-06-10T00:46:09;2.4;;;1.7;;
74644;SDS011;63163;55.630;37.594;2023-06-10T00:47:11;3.2;;;1.6;;
74644;SDS011;63163;55.630;37.594;2023-06-10T00:48:12;3.4;;;1.8;;
74644;SDS011;63163;55.630;37.594;2023-06-10T00:49:13;3.4;;;1.9;;
74644;SDS011;63163;55.630;37.594;2023-06-10T00:50:14;3.1;;;1.7;;
74644;SDS011;63163;55.630;37.594;2023-06-10T00:51:14;10.0;;;2.5;;
74644;SDS011;63163;55.630;37.594;2023-06-10T00:52:15;3.9;;;1.8;;
74644;SDS011;63163;55.630;37.594;2023-06-10T00:53:17;4.6;;;2.0;;
74644;SDS011;63163;55.630;37.594;2023-06-10T00:54:18;5.5;;;2.1;;
74644;SDS011;63163;55.630;37.594;2023-06-10T00:55:18;3.9;;;1.9;;
74644;SDS011;63163;55.630;37.594;2023-06-10T00:56:19;4.2;;;2.2;;
74644;SDS011;63163;55.630;37.594;2023-06-10T00:57:21;3.9;;;2.0;;
74644;SDS011;63163;55.630;37.594;2023-06-10T00:58:22;3.8;;;2.0;;
74644;SDS011;63163;55.630;37.594;2023-06-10T00:59:23;3.8;;;1.9;;
74644;SDS011;63163;55.630;37.594;2023-06-10T01:00:25;5.7;;;2.4;;
74644;SDS011;63163;55.630;37.594;2023-06-10T01:01:26;5.0;;;1.7;;
74644;SDS011;63163;55.630;37.594;2023-06-10T01:02:27;3.5;;;1.9;;
74644;SDS011;63163;55.630;37.594;2023-06-10T01:03:27;6.7;;;2.1;;
74644;SDS011;63163;55.630;37.594;2023-06-10T01:04:28;4.0;;;1.9;;
74644;SDS011;63163;55.630;37.594;2023-06-10T01:05:29;3.6;;;2.0;;
74644;SDS011;63163;55.630;37.594;2023-06-10T01:06:35;3.8;;;1.9;;
74644;SDS011;63163;55.630;37.594;2023-06-10T01:07:38;5.0;;;1.9;;
74644;SDS011;63163;55.630;37.594;2023-06-10T01:08:41;3.4;;;1.7;;
74644;SDS011;63163;55.630;37.594;2023-06-10T01:09:48;6.1;;;1.8;;
74644;SDS011;63163;55.630;37.594;2023-06-10T01:10:51;2.8;;;1.7;;
74644;SDS011;63163;55.630;37.594;2023-06-10T01:11:56;3.6;;;1.7;;
74644;SDS011;63163;55.630;37.594;2023-06-10T01:12:59;3.7;;;2.1;;
74644;SDS011;63163;55.630;37.594;2023-06-10T01:14:02;4.4;;;1.9;;
74644;SDS011;63163;55.630;37.594;2023-06-10T01:15:04;4.9;;;2.0;;
74644;SDS011;63163;55.630;37.594;2023-06-10T01:16:05;4.4;;;1.9;;
74644;SDS011;63163;55.630;37.594;2023-06-10T01:17:06;3.2;;;1.9;;
74644;SDS011;63163;55.630;37.594;2023-06-10T01:18:07;5.4;;;1.8;;
74644;SDS011;63163;55.630;37.594;2023-06-10T01:19:09;4.4;;;1.9;;
74644;SDS011;63163;55.630;37.594;2023-06-10T01:20:11;2.8;;;1.6;;
74644;SDS011;63163;55.630;37.594;2023-06-10T01:21:13;3.7;;;1.7;;
74644;SDS011;63163;55.630;37.594;2023-06-10T01:22:13;3.9;;;1.9;;
74644;SDS011;63163;55.630;37.594;2023-06-10T01:23:16;3.4;;;1.8;;
74644;SDS011;63163;55.630;37.594;2023-06-10T01:24:16;4.7;;;1.9;;
74644;SDS011;63163;55.630;37.594;2023-06-10T01:25:18;4.1;;;1.8;;
74644;SDS011;63163;55.630;37.594;2023-06-10T01:26:19;3.3;;;1.7;;
74644;SDS011;63163;55.630;37.594;2023-06-10T01:27:22;3.1;;;1.6;;
74644;SDS011;63163;55.630;37.594;2023-06-10T01:28:25;4.5;;;1.7;;
74644;SDS011;63163;55.630;37.594;2023-06-10T01:29:28;5.0;;;1.7;;
74644;SDS011;63163;55.630;37.594;2023-06-10T01:30:32;4.4;;;2.0;;
74644;SDS011;63163;55.630;37.594;2023-06-10T01:31:38;3.2;;;1.8;;
74644;SDS011;63163;55.630;37.594;2023-06-10T01:32:43;2.9;;;1.9;;
74644;SDS011;63163;55.630;37.594;2023-06-10T01:33:45;3.9;;;2.0;;
74644;SDS011;63163;55.630;37.594;2023-06-10T01:34:46;3.1;;;1.7;;
74644;SDS011;63163;55.630;37.594;2023-06-10T01:35:48;6.0;;;1.7;;
74644;SDS011;63163;55.630;37.594;2023-06-10T01:36:49;3.6;;;1.6;;
74644;SDS011;63163;55.630;37.594;2023-06-10T01:37:50;4.2;;;1.8;;
74644;SDS011;63163;55.630;37.594;2023-06-10T01:38:53;3.9;;;1.9;;
74644;SDS011;63163;55.630;37.594;2023-06-10T01:39:55;4.4;;;1.9;;
74644;SDS011;63163;55.630;37.594;2023-06-10T01:40:56;5.4;;;1.9;;
74644;SDS011;63163;55.630;37.594;2023-06-10T01:41:57;2.7;;;1.7;;
74644;SDS011;63163;55.630;37.594;2023-06-10T01:42:58;3.9;;;2.1;;
74644;SDS011;63163;55.630;37.594;2023-06-10T01:43:59;4.1;;;1.7;;
74644;SDS011;63163;55.630;37.594;2023-06-10T01:44:59;4.8;;;1.8;;
74644;SDS011;63163;55.630;37.594;2023-06-10T01:46:00;2.7;;;1.7;;
74644;SDS011;63163;55.630;37.594;2023-06-10T01:47:00;4.9;;;1.8;;
74644;SDS011;63163;55.630;37.594;2023-06-10T01:48:01;6.5;;;2.1;;
74644;SDS011;63163;55.630;37.594;2023-06-10T01:49:01;3.4;;;1.9;;
74644;SDS011;63163;55.630;37.594;2023-06-10T01:50:02;4.6;;;1.9;;
74644;SDS011;63163;55.630;37.594;2023-06-10T01:51:03;3.9;;;1.9;;
74644;SDS011;63163;55.630;37.594;2023-06-10T01:52:04;5.7;;;1.7;;
74644;SDS011;63163;55.630;37.594;2023-06-10T01:53:04;7.5;;;1.8;;
74644;SDS011;63163;55.630;37.594;2023-06-10T01:54:06;3.3;;;1.8;;
74644;SDS011;63163;55.630;37.594;2023-06-10T01:55:06;5.4;;;3.1;;
74644;SDS011;63163;55.630;37.594;2023-06-10T01:56:07;6.0;;;2.0;;
74644;SDS011;63163;55.630;37.594;2023-06-10T01:57:08;3.9;;;1.7;;
74644;SDS011;63163;55.630;37.594;2023-06-10T01:58:08;3.6;;;1.8;;
74644;SDS011;63163;55.630;37.594;2023-06-10T01:59:09;5.7;;;2.0;;
74644;SDS011;63163;55.630;37.594;2023-06-10T02:00:10;3.7;;;1.9;;
74644;SDS011;63163;55.630;37.594;2023-06-10T02:01:10;2.5;;;1.7;;
74644;SDS011;63163;55.630;37.594;2023-06-10T02:02:11;3.4;;;1.8;;
74644;SDS011;63163;55.630;37.594;2023-06-10T02:03:12;4.4;;;2.0;;
74644;SDS011;63163;55.630;37.594;2023-06-10T02:04:13;5.1;;;1.8;;
74644;SDS011;63163;55.630;37.594;2023-06-10T02:05:13;4.1;;;2.0;;
74644;SDS011;63163;55.630;37.594;2023-06-10T02:06:14;4.6;;;1.5;;
74644;SDS011;63163;55.630;37.594;2023-06-10T02:07:14;5.2;;;1.8;;
74644;SDS011;63163;55.630;37.594;2023-06-10T02:08:15;2.9;;;1.7;;
74644;SDS011;63163;55.630;37.594;2023-06-10T02:09:15;2.9;;;1.8;;
74644;SDS011;63163;55.630;37.594;2023-06-10T02:10:16;3.6;;;1.9;;
74644;SDS011;63163;55.630;37.594;2023-06-10T02:11:16;3.4;;;2.1;;
74644;SDS011;63163;55.630;37.594;2023-06-10T02:12:17;4.3;;;1.8;;
74644;SDS011;63163;55.630;37.594;2023-06-10T02:13:17;3.0;;;1.8;;
74644;SDS011;63163;55.630;37.594;2023-06-10T02:14:18;3.4;;;1.8;;
74644;SDS011;63163;55.630;37.594;2023-06-10T02:15:18;5.8;;;2.1;;
74644;SDS011;63163;55.630;37.594;2023-06-10T02:16:19;4.6;;;1.7;;
74644;SDS011;63163;55.630;37.594;2023-06-10T02:17:21;3.0;;;1.7;;
74644;SDS011;63163;55.630;37.594;2023-06-10T02:18:23;3.4;;;1.8;;
74644;SDS011;63163;55.630;37.594;2023-06-10T02:19:23;4.1;;;2.0;;
74644;SDS011;63163;55.630;37.594;2023-06-10T02:20:27;3.7;;;1.7;;
74644;SDS011;63163;55.630;37.594;2023-06-10T02:21:27;2.9;;;1.7;;
74644;SDS011;63163;55.630;37.594;2023-06-10T02:22:27;3.7;;;1.7;;
74644;SDS011;63163;55.630;37.594;2023-06-10T02:23:28;5.1;;;1.7;;
74644;SDS011;63163;55.630;37.594;2023-06-10T02:24:29;4.8;;;2.1;;
74644;SDS011;63163;55.630;37.594;2023-06-10T02:25:29;9.8;;;3.1;;
74644;SDS011;63163;55.630;37.594;2023-06-10T02:26:30;3.1;;;1.8;;
74644;SDS011;63163;55.630;37.594;2023-06-10T02:27:30;4.0;;;1.8;;
74644;SDS011;63163;55.630;37.594;2023-06-10T02:28:31;3.8;;;1.6;;
74644;SDS011;63163;55.630;37.594;2023-06-10T02:29:32;4.2;;;1.7;;
74644;SDS011;63163;55.630;37.594;2023-06-10T02:30:33;4.4;;;1.9;;
74644;SDS011;63163;55.630;37.594;2023-06-10T02:31:33;2.6;;;1.7;;
74644;SDS011;63163;55.630;37.594;2023-06-10T02:32:35;3.1;;;1.8;;
74644;SDS011;63163;55.630;37.594;2023-06-10T02:33:36;4.2;;;1.9;;
74644;SDS011;63163;55.630;37.594;2023-06-10T02:34:40;6.8;;;1.9;;
74644;SDS011;63163;55.630;37.594;2023-06-10T02:35:42;4.9;;;2.0;;
74644;SDS011;63163;55.630;37.594;2023-06-10T02:36:43;4.5;;;2.1;;
74644;SDS011;63163;55.630;37.594;2023-06-10T02:37:43;5.7;;;2.1;;
74644;SDS011;63163;55.630;37.594;2023-06-10T02:38:44;2.9;;;1.7;;
74644;SDS011;63163;55.630;37.594;2023-06-10T02:39:44;4.5;;;1.8;;
74644;SDS011;63163;55.630;37.594;2023-06-10T02:40:46;4.2;;;1.8;;
74644;SDS011;63163;55.630;37.594;2023-06-10T02:41:46;3.8;;;1.8;;
74644;SDS011;63163;55.630;37.594;2023-06-10T02:42:47;5.2;;;1.9;;
74644;SDS011;63163;55.630;37.594;2023-06-10T02:43:47;2.2;;;1.6;;
74644;SDS011;63163;55.630;37.594;2023-06-10T02:44:48;3.1;;;1.8;;
74644;SDS011;63163;55.630;37.594;2023-06-10T02:45:48;3.1;;;1.9;;
74644;SDS011;63163;55.630;37.594;2023-06-10T02:46:49;2.9;;;1.6;;
74644;SDS011;63163;55.630;37.594;2023-06-10T02:47:49;4.2;;;1.8;;
74644;SDS011;63163;55.630;37.594;2023-06-10T02:48:50;4.3;;;1.8;;
74644;SDS011;63163;55.630;37.594;2023-06-10T02:49:52;5.3;;;1.8;;
74644;SDS011;63163;55.630;37.594;2023-06-10T02:50:52;5.5;;;2.0;;
74644;SDS011;63163;55.630;37.594;2023-06-10T02:51:53;4.2;;;1.7;;
74644;SDS011;63163;55.630;37.594;2023-06-10T02:52:54;4.3;;;1.9;;
74644;SDS011;63163;55.630;37.594;2023-06-10T02:53:54;3.1;;;1.4;;
74644;SDS011;63163;55.630;37.594;2023-06-10T02:54:54;3.4;;;1.8;;
74644;SDS011;63163;55.630;37.594;2023-06-10T02:55:55;4.8;;;1.8;;
74644;SDS011;63163;55.630;37.594;2023-06-10T02:56:56;3.7;;;1.9;;
74644;SDS011;63163;55.630;37.594;2023-06-10T02:57:56;2.7;;;1.7;;
74644;SDS011;63163;55.630;37.594;2023-06-10T02:58:57;4.0;;;1.9;;
74644;SDS011;63163;55.630;37.594;2023-06-10T02:59:58;5.4;;;1.9;;
74644;SDS011;63163;55.630;37.594;2023-06-10T03:00:58;3.0;;;1.6;;
74644;SDS011;63163;55.630;37.594;2023-06-10T03:01:59;6.7;;;1.9;;
74644;SDS011;63163;55.630;37.594;2023-06-10T03:03:01;4.8;;;1.8;;
74644;SDS011;63163;55.630;37.594;2023-06-10T03:04:03;4.7;;;1.9;;
74644;SDS011;63163;55.630;37.594;2023-06-10T03:05:04;3.8;;;1.5;;
74644;SDS011;63163;55.630;37.594;2023-06-10T03:06:05;3.9;;;1.5;;
74644;SDS011;63163;55.630;37.594;2023-06-10T03:07:05;3.4;;;1.9;;
74644;SDS011;63163;55.630;37.594;2023-06-10T03:08:07;3.4;;;1.7;;
74644;SDS011;63163;55.630;37.594;2023-06-10T03:09:07;6.7;;;1.9;;
74644;SDS011;63163;55.630;37.594;2023-06-10T03:10:08;3.9;;;1.7;;
74644;SDS011;63163;55.630;37.594;2023-06-10T03:11:09;2.7;;;1.6;;
74644;SDS011;63163;55.630;37.594;2023-06-10T03:12:10;4.8;;;1.7;;
74644;SDS011;63163;55.630;37.594;2023-06-10T03:13:11;4.5;;;1.7;;
74644;SDS011;63163;55.630;37.594;2023-06-10T03:14:11;3.4;;;1.8;;
74644;SDS011;63163;55.630;37.594;2023-06-10T03:15:12;4.5;;;1.8;;
74644;SDS011;63163;55.630;37.594;2023-06-10T03:16:13;6.2;;;1.8;;
74644;SDS011;63163;55.630;37.594;2023-06-10T03:17:13;2.6;;;1.7;;
74644;SDS011;63163;55.630;37.594;2023-06-10T03:18:14;3.7;;;1.5;;
74644;SDS011;63163;55.630;37.594;2023-06-10T03:19:15;4.7;;;2.0;;
74644;SDS011;63163;55.630;37.594;2023-06-10T03:20:15;3.3;;;1.6;;
74644;SDS011;63163;55.630;37.594;2023-06-10T03:21:16;4.0;;;1.7;;
74644;SDS011;63163;55.630;37.594;2023-06-10T03:22:17;8.0;;;1.9;;
74644;SDS011;63163;55.630;37.594;2023-06-10T03:23:18;4.1;;;1.8;;
74644;SDS011;63163;55.630;37.594;2023-06-10T03:24:18;3.2;;;1.7;;
74644;SDS011;63163;55.630;37.594;2023-06-10T03:25:19;6.4;;;2.0;;
74644;SDS011;63163;55.630;37.594;2023-06-10T03:26:21;4.7;;;1.8;;
74644;SDS011;63163;55.630;37.594;2023-06-10T03:27:22;6.4;;;1.8;;
74644;SDS011;63163;55.630;37.594;2023-06-10T03:28:22;3.2;;;1.5;;
74644;SDS011;63163;55.630;37.594;2023-06-10T03:29:23;2.8;;;1.5;;
74644;SDS011;63163;55.630;37.594;2023-06-10T03:30:23;4.3;;;1.7;;
74644;SDS011;63163;55.630;37.594;2023-06-10T03:31:24;5.7;;;1.8;;
74644;SDS011;63163;55.630;37.594;2023-06-10T03:32:24;5.1;;;1.8;;
74644;SDS011;63163;55.630;37.594;2023-06-10T03:33:25;2.3;;;1.4;;
74644;SDS011;63163;55.630;37.594;2023-06-10T03:34:26;6.0;;;1.9;;
74644;SDS011;63163;55.630;37.594;2023-06-10T03:35:27;5.3;;;1.9;;
74644;SDS011;63163;55.630;37.594;2023-06-10T03:36:27;2.8;;;1.7;;
74644;SDS011;63163;55.630;37.594;2023-06-10T03:37:29;3.4;;;1.7;;
74644;SDS011;63163;55.630;37.594;2023-06-10T03:38:29;3.2;;;1.7;;
74644;SDS011;63163;55.630;37.594;2023-06-10T03:39:30;3.1;;;1.5;;
74644;SDS011;63163;55.630;37.594;2023-06-10T03:40:30;3.6;;;1.8;;
74644;SDS011;63163;55.630;37.594;2023-06-10T03:41:32;4.2;;;1.7;;
74644;SDS011;63163;55.630;37.594;2023-06-10T03:42:33;3.0;;;1.6;;
74644;SDS011;63163;55.630;37.594;2023-06-10T03:43:33;4.5;;;1.6;;
74644;SDS011;63163;55.630;37.594;2023-06-10T03:44:34;4.4;;;1.8;;
74644;SDS011;63163;55.630;37.594;2023-06-10T03:45:34;4.0;;;1.7;;
74644;SDS011;63163;55.630;37.594;2023-06-10T03:46:35;3.5;;;1.8;;
74644;SDS011;63163;55.630;37.594;2023-06-10T03:47:36;2.7;;;1.7;;
74644;SDS011;63163;55.630;37.594;2023-06-10T03:48:37;2.2;;;1.4;;
74644;SDS011;63163;55.630;37.594;2023-06-10T03:49:38;2.3;;;1.6;;
74644;SDS011;63163;55.630;37.594;2023-06-10T03:50:40;5.0;;;1.7;;
74644;SDS011;63163;55.630;37.594;2023-06-10T03:51:41;3.5;;;1.6;;
74644;SDS011;63163;55.630;37.594;2023-06-10T03:52:41;4.1;;;1.6;;
74644;SDS011;63163;55.630;37.594;2023-06-10T03:53:42;3.5;;;1.6;;
74644;SDS011;63163;55.630;37.594;2023-06-10T03:54:42;5.1;;;1.6;;
74644;SDS011;63163;55.630;37.594;2023-06-10T03:55:43;2.9;;;1.7;;
74644;SDS011;63163;55.630;37.594;2023-06-10T03:56:43;3.6;;;1.6;;
74644;SDS011;63163;55.630;37.594;2023-06-10T03:57:44;4.8;;;2.3;;
74644;SDS011;63163;55.630;37.594;2023-06-10T03:58:44;7.4;;;4.2;;
74644;SDS011;63163;55.630;37.594;2023-06-10T03:59:45;8.1;;;2.8;;
74644;SDS011;63163;55.630;37.594;2023-06-10T04:00:46;5.6;;;3.1;;
74644;SDS011;63163;55.630;37.594;2023-06-10T04:01:47;7.8;;;3.2;;
74644;SDS011;63163;55.630;37.594;2023-06-10T04:02:47;5.2;;;2.7;;
74644;SDS011;63163;55.630;37.594;2023-06-10T04:03:49;3.4;;;1.5;;
74644;SDS011;63163;55.630;37.594;2023-06-10T04:04:51;4.2;;;2.3;;
74644;SDS011;63163;55.630;37.594;2023-06-10T04:05:52;3.9;;;1.8;;
74644;SDS011;63163;55.630;37.594;2023-06-10T04:06:52;6.6;;;2.2;;
74644;SDS011;63163;55.630;37.594;2023-06-10T04:07:53;2.9;;;1.5;;
74644;SDS011;63163;55.630;37.594;2023-06-10T04:08:53;3.2;;;1.5;;
74644;SDS011;63163;55.630;37.594;2023-06-10T04:09:54;3.7;;;1.6;;
74644;SDS011;63163;55.630;37.594;2023-06-10T04:10:54;4.2;;;1.8;;
74644;SDS011;63163;55.630;37.594;2023-06-10T04:11:55;3.9;;;1.6;;
74644;SDS011;63163;55.630;37.594;2023-06-10T04:12:56;3.9;;;1.8;;
74644;SDS011;63163;55.630;37.594;2023-06-10T04:13:56;3.7;;;1.7;;
74644;SDS011;63163;55.630;37.594;2023-06-10T04:14:57;3.2;;;1.6;;
74644;SDS011;63163;55.630;37.594;2023-06-10T04:15:57;4.6;;;2.1;;
74644;SDS011;63163;55.630;37.594;2023-06-10T04:16:58;3.1;;;1.9;;
74644;SDS011;63163;55.630;37.594;2023-06-10T04:17:58;1.8;;;1.3;;
74644;SDS011;63163;55.630;37.594;2023-06-10T04:19:00;3.7;;;1.7;;
74644;SDS011;63163;55.630;37.594;2023-06-10T04:20:00;4.3;;;1.4;;
74644;SDS011;63163;55.630;37.594;2023-06-10T04:21:01;3.5;;;1.4;;
74644;SDS011;63163;55.630;37.594;2023-06-10T04:22:01;3.0;;;1.4;;
74644;SDS011;63163;55.630;37.594;2023-06-10T04:23:03;4.1;;;1.8;;
74644;SDS011;63163;55.630;37.594;2023-06-10T04:24:04;3.3;;;1.7;;
74644;SDS011;63163;55.630;37.594;2023-06-10T04:25:05;4.1;;;1.5;;
74644;SDS011;63163;55.630;37.594;2023-06-10T04:26:07;2.5;;;1.3;;
74644;SDS011;63163;55.630;37.594;2023-06-10T04:27:08;3.8;;;1.5;;
74644;SDS011;63163;55.630;37.594;2023-06-10T04:28:08;2.3;;;1.3;;
74644;SDS011;63163;55.630;37.594;2023-06-10T04:29:09;5.1;;;1.3;;
74644;SDS011;63163;55.630;37.594;2023-06-10T04:30:10;3.9;;;1.5;;
74644;SDS011;63163;55.630;37.594;2023-06-10T04:31:11;4.6;;;1.3;;
74644;SDS011;63163;55.630;37.594;2023-06-10T04:32:11;3.3;;;1.3;;
74644;SDS011;63163;55.630;37.594;2023-06-10T04:33:12;2.7;;;1.3;;
74644;SDS011;63163;55.630;37.594;2023-06-10T04:34:13;2.9;;;1.3;;
74644;SDS011;63163;55.630;37.594;2023-06-10T04:35:14;4.0;;;1.4;;
74644;SDS011;63163;55.630;37.594;2023-06-10T04:36:15;5.6;;;1.4;;
74644;SDS011;63163;55.630;37.594;2023-06-10T04:37:16;2.8;;;1.4;;
74644;SDS011;63163;55.630;37.594;2023-06-10T04:38:16;4.5;;;1.4;;
74644;SDS011;63163;55.630;37.594;2023-06-10T04:39:17;3.3;;;1.5;;
74644;SDS011;63163;55.630;37.594;2023-06-10T04:40:17;2.6;;;1.4;;
74644;SDS011;63163;55.630;37.594;2023-06-10T04:41:18;2.4;;;1.2;;
74644;SDS011;63163;55.630;37.594;2023-06-10T04:42:18;5.9;;;1.4;;
74644;SDS011;63163;55.630;37.594;2023-06-10T04:43:19;1.9;;;1.3;;
74644;SDS011;63163;55.630;37.594;2023-06-10T04:44:19;5.6;;;1.1;;
74644;SDS011;63163;55.630;37.594;2023-06-10T04:45:20;2.2;;;1.1;;
74644;SDS011;63163;55.630;37.594;2023-06-10T04:46:20;2.7;;;1.0;;
74644;SDS011;63163;55.630;37.594;2023-06-10T04:47:21;2.4;;;1.2;;
74644;SDS011;63163;55.630;37.594;2023-06-10T04:48:21;4.0;;;1.3;;
74644;SDS011;63163;55.630;37.594;2023-06-10T04:49:23;3.0;;;1.2;;
74644;SDS011;63163;55.630;37.594;2023-06-10T04:50:24;2.4;;;1.1;;
74644;SDS011;63163;55.630;37.594;2023-06-10T04:51:25;1.9;;;0.9;;
74644;SDS011;63163;55.630;37.594;2023-06-10T04:52:26;1.6;;;1.0;;
74644;SDS011;63163;55.630;37.594;2023-06-10T04:53:27;4.0;;;1.1;;
74644;SDS011;63163;55.630;37.594;2023-06-10T04:54:28;4.0;;;1.1;;
74644;SDS011;63163;55.630;37.594;2023-06-10T04:55:29;1.7;;;1.0;;
74644;SDS011;63163;55.630;37.594;2023-06-10T04:56:30;2.2;;;1.0;;
74644;SDS011;63163;55.630;37.594;2023-06-10T04:57:30;2.6;;;1.1;;
74644;SDS011;63163;55.630;37.594;2023-06-10T04:58:31;3.2;;;1.1;;
74644;SDS011;63163;55.630;37.594;2023-06-10T04:59:31;2.9;;;1.0;;
74644;SDS011;63163;55.630;37.594;2023-06-10T05:00:32;8.2;;;1.3;;
74644;SDS011;63163;55.630;37.594;2023-06-10T05:01:33;3.0;;;1.3;;
74644;SDS011;63163;55.630;37.594;2023-06-10T05:02:33;2.4;;;1.2;;
74644;SDS011;63163;55.630;37.594;2023-06-10T05:03:34;2.1;;;1.0;;
74644;SDS011;63163;55.630;37.594;2023-06-10T05:04:34;2.1;;;1.0;;
74644;SDS011;63163;55.630;37.594;2023-06-10T05:05:34;3.3;;;1.1;;
74644;SDS011;63163;55.630;37.594;2023-06-10T05:06:35;2.5;;;1.6;;
74644;SDS011;63163;55.630;37.594;2023-06-10T05:07:36;3.3;;;1.1;;
74644;SDS011;63163;55.630;37.594;2023-06-10T05:08:37;3.4;;;1.1;;
74644;SDS011;63163;55.630;37.594;2023-06-10T05:09:37;3.2;;;0.9;;
74644;SDS011;63163;55.630;37.594;2023-06-10T05:10:38;3.7;;;1.0;;
74644;SDS011;63163;55.630;37.594;2023-06-10T05:11:38;1.7;;;1.1;;
74644;SDS011;63163;55.630;37.594;2023-06-10T05:12:39;2.8;;;0.8;;
74644;SDS011;63163;55.630;37.594;2023-06-10T05:13:41;4.7;;;1.1;;
74644;SDS011;63163;55.630;37.594;2023-06-10T05:14:41;4.6;;;1.1;;
74644;SDS011;63163;55.630;37.594;2023-06-10T05:15:42;2.6;;;1.1;;
74644;SDS011;63163;55.630;37.594;2023-06-10T05:16:44;2.0;;;0.9;;
74644;SDS011;63163;55.630;37.594;2023-06-10T05:17:45;4.1;;;1.1;;
74644;SDS011;63163;55.630;37.594;2023-06-10T05:18:45;5.1;;;1.0;;
74644;SDS011;63163;55.630;37.594;2023-06-10T05:19:46;3.3;;;1.0;;
74644;SDS011;63163;55.630;37.594;2023-06-10T05:20:47;3.8;;;1.3;;
74644;SDS011;63163;55.630;37.594;2023-06-10T05:21:48;3.6;;;1.2;;
74644;SDS011;63163;55.630;37.594;2023-06-10T05:22:49;1.8;;;1.1;;
74644;SDS011;63163;55.630;37.594;2023-06-10T05:23:49;2.5;;;1.0;;
74644;SDS011;63163;55.630;37.594;2023-06-10T05:24:50;3.7;;;1.1;;
74644;SDS011;63163;55.630;37.594;2023-06-10T05:25:51;2.3;;;1.1;;
74644;SDS011;63163;55.630;37.594;2023-06-10T05:26:51;3.6;;;1.2;;
74644;SDS011;63163;55.630;37.594;2023-06-10T05:27:52;1.2;;;0.9;;
74644;SDS011;63163;55.630;37.594;2023-06-10T05:28:52;5.5;;;1.0;;
74644;SDS011;63163;55.630;37.594;2023-06-10T05:29:53;3.8;;;1.2;;
74644;SDS011;63163;55.630;37.594;2023-06-10T05:30:53;4.2;;;1.3;;
74644;SDS011;63163;55.630;37.594;2023-06-10T05:31:54;2.9;;;1.1;;
74644;SDS011;63163;55.630;37.594;2023-06-10T05:32:57;4.8;;;1.2;;
74644;SDS011;63163;55.630;37.594;2023-06-10T05:33:57;2.3;;;1.1;;
74644;SDS011;63163;55.630;37.594;2023-06-10T05:34:58;3.3;;;1.1;;
74644;SDS011;63163;55.630;37.594;2023-06-10T05:36:00;4.3;;;1.1;;
74644;SDS011;63163;55.630;37.594;2023-06-10T05:37:00;2.2;;;1.1;;
74644;SDS011;63163;55.630;37.594;2023-06-10T05:38:01;1.8;;;1.2;;
74644;SDS011;63163;55.630;37.594;2023-06-10T05:39:02;2.5;;;1.3;;
74644;SDS011;63163;55.630;37.594;2023-06-10T05:40:03;2.3;;;1.1;;
74644;SDS011;63163;55.630;37.594;2023-06-10T05:41:04;2.1;;;1.1;;
74644;SDS011;63163;55.630;37.594;2023-06-10T05:42:06;2.5;;;1.1;;
74644;SDS011;63163;55.630;37.594;2023-06-10T05:43:06;2.1;;;1.1;;
74644;SDS011;63163;55.630;37.594;2023-06-10T05:44:07;1.8;;;1.2;;
74644;SDS011;63163;55.630;37.594;2023-06-10T05:45:08;2.1;;;1.2;;
74644;SDS011;63163;55.630;37.594;2023-06-10T05:46:09;3.6;;;1.0;;
74644;SDS011;63163;55.630;37.594;2023-06-10T05:47:09;2.0;;;1.1;;
74644;SDS011;63163;55.630;37.594;2023-06-10T05:48:09;2.9;;;1.3;;
74644;SDS011;63163;55.630;37.594;2023-06-10T05:49:10;3.2;;;1.5;;
74644;SDS011;63163;55.630;37.594;2023-06-10T05:50:11;3.8;;;1.2;;
74644;SDS011;63163;55.630;37.594;2023-06-10T05:51:11;2.7;;;1.3;;
74644;SDS011;63163;55.630;37.594;2023-06-10T05:52:12;1.9;;;1.0;;
74644;SDS011;63163;55.630;37.594;2023-06-10T05:53:12;3.4;;;1.2;;
74644;SDS011;63163;55.630;37.594;2023-06-10T05:54:15;4.2;;;1.3;;
74644;SDS011;63163;55.630;37.594;2023-06-10T05:55:15;3.8;;;1.2;;
74644;SDS011;63163;55.630;37.594;2023-06-10T05:56:16;3.6;;;1.3;;
74644;SDS011;63163;55.630;37.594;2023-06-10T05:57:16;2.6;;;1.3;;
74644;SDS011;63163;55.630;37.594;2023-06-10T05:58:17;3.8;;;1.4;;
74644;SDS011;63163;55.630;37.594;2023-06-10T05:59:17;3.6;;;1.2;;
74644;SDS011;63163;55.630;37.594;2023-06-10T06:00:18;6.7;;;1.2;;
74644;SDS011;63163;55.630;37.594;2023-06-10T06:01:19;5.3;;;1.3;;
74644;SDS011;63163;55.630;37.594;2023-06-10T06:02:20;3.9;;;1.5;;
74644;SDS011;63163;55.630;37.594;2023-06-10T06:03:20;1.8;;;1.1;;
74644;SDS011;63163;55.630;37.594;2023-06-10T06:04:21;3.1;;;1.2;;
74644;SDS011;63163;55.630;37.594;2023-06-10T06:05:21;2.9;;;1.3;;
74644;SDS011;63163;55.630;37.594;2023-06-10T06:06:22;3.6;;;1.4;;
74644;SDS011;63163;55.630;37.594;2023-06-10T06:07:23;5.0;;;1.4;;
74644;SDS011;63163;55.630;37.594;2023-06-10T06:08:23;4.6;;;1.3;;
74644;SDS011;63163;55.630;37.594;2023-06-10T06:09:24;2.5;;;1.2;;
74644;SDS011;63163;55.630;37.594;2023-06-10T06:10:24;3.4;;;1.3;;
74644;SDS011;63163;55.630;37.594;2023-06-10T06:11:25;3.6;;;1.3;;
74644;SDS011;63163;55.630;37.594;2023-06-10T06:12:26;3.2;;;1.1;;